sensor_id;sensor_type;location;lat;lon;timestamp;P1;durP1;ratioP1;P2;durP2;ratioP2
19778;SDS011;10049;59.306;18.090;2023-09-12T00:00:52;13.07;;;7.10;;
19778;SDS011;10049;59.306;18.090;2023-09-12T00:03:21;10.35;;;7.20;;
19778;SDS011;10049;59.306;18.090;2023-09-12T00:05:52;10.07;;;6.85;;
19778;SDS011;10049;59.306;18.090;2023-09-12T00:08:20;12.00;;;6.95;;
19778;SDS011;10049;59.306;18.090;2023-09-12T00:10:59;11.35;;;6.70;;
19778;SDS011;10049;59.306;18.090;2023-09-12T00:13:26;10.77;;;6.60;;
19778;SDS011;10049;59.306;18.090;2023-09-12T00:15:54;8.98;;;6.43;;
19778;SDS011;10049;59.306;18.090;2023-09-12T00:18:26;12.50;;;7.25;;
19778;SDS011;10049;59.306;18.090;2023-09-12T00:20:54;10.95;;;6.78;;
19778;SDS011;10049;59.306;18.090;2023-09-12T00:23:22;10.57;;;6.55;;
19778;SDS011;10049;59.306;18.090;2023-09-12T00:25:49;10.43;;;6.55;;
19778;SDS011;10049;59.306;18.090;2023-09-12T00:28:19;10.55;;;6.47;;
19778;SDS011;10049;59.306;18.090;2023-09-12T00:30:47;11.95;;;6.75;;
19778;SDS011;10049;59.306;18.090;2023-09-12T00:33:14;13.65;;;7.07;;
19778;SDS011;10049;59.306;18.090;2023-09-12T00:35:43;10.15;;;6.13;;
19778;SDS011;10049;59.306;18.090;2023-09-12T00:38:10;9.32;;;6.07;;
19778;SDS011;10049;59.306;18.090;2023-09-12T00:40:38;9.00;;;6.18;;
19778;SDS011;10049;59.306;18.090;2023-09-12T00:43:05;9.93;;;5.93;;
19778;SDS011;10049;59.306;18.090;2023-09-12T00:45:34;10.23;;;6.10;;
19778;SDS011;10049;59.306;18.090;2023-09-12T00:48:02;9.80;;;6.35;;
19778;SDS011;10049;59.306;18.090;2023-09-12T00:50:31;9.80;;;6.13;;
19778;SDS011;10049;59.306;18.090;2023-09-12T00:52:59;10.68;;;6.32;;
19778;SDS011;10049;59.306;18.090;2023-09-12T00:55:28;9.10;;;5.97;;
19778;SDS011;10049;59.306;18.090;2023-09-12T00:57:56;8.27;;;5.30;;
19778;SDS011;10049;59.306;18.090;2023-09-12T01:00:24;8.93;;;5.55;;
19778;SDS011;10049;59.306;18.090;2023-09-12T01:02:56;10.30;;;5.13;;
19778;SDS011;10049;59.306;18.090;2023-09-12T01:05:24;8.93;;;4.95;;
19778;SDS011;10049;59.306;18.090;2023-09-12T01:07:51;8.25;;;4.93;;
19778;SDS011;10049;59.306;18.090;2023-09-12T01:10:19;7.30;;;4.95;;
19778;SDS011;10049;59.306;18.090;2023-09-12T01:12:47;12.40;;;5.38;;
19778;SDS011;10049;59.306;18.090;2023-09-12T01:15:15;10.75;;;5.35;;
19778;SDS011;10049;59.306;18.090;2023-09-12T01:17:43;13.43;;;5.25;;
19778;SDS011;10049;59.306;18.090;2023-09-12T01:20:14;9.10;;;5.63;;
19778;SDS011;10049;59.306;18.090;2023-09-12T01:25:42;7.47;;;4.72;;
19778;SDS011;10049;59.306;18.090;2023-09-12T01:28:14;6.85;;;4.80;;
19778;SDS011;10049;59.306;18.090;2023-09-12T01:30:44;14.50;;;4.72;;
19778;SDS011;10049;59.306;18.090;2023-09-12T01:33:12;6.25;;;4.60;;
19778;SDS011;10049;59.306;18.090;2023-09-12T01:35:40;6.43;;;4.90;;
19778;SDS011;10049;59.306;18.090;2023-09-12T01:38:08;5.25;;;4.32;;
19778;SDS011;10049;59.306;18.090;2023-09-12T01:40:39;6.43;;;4.43;;
19778;SDS011;10049;59.306;18.090;2023-09-12T01:43:09;5.82;;;4.25;;
19778;SDS011;10049;59.306;18.090;2023-09-12T01:45:40;6.13;;;4.32;;
19778;SDS011;10049;59.306;18.090;2023-09-12T01:48:09;5.78;;;4.28;;
19778;SDS011;10049;59.306;18.090;2023-09-12T01:50:38;5.18;;;4.20;;
19778;SDS011;10049;59.306;18.090;2023-09-12T01:53:07;10.55;;;4.20;;
19778;SDS011;10049;59.306;18.090;2023-09-12T01:55:35;4.85;;;3.70;;
19778;SDS011;10049;59.306;18.090;2023-09-12T01:58:03;5.60;;;3.97;;
19778;SDS011;10049;59.306;18.090;2023-09-12T02:00:31;12.25;;;3.95;;
19778;SDS011;10049;59.306;18.090;2023-09-12T02:03:03;5.18;;;4.00;;
19778;SDS011;10049;59.306;18.090;2023-09-12T02:05:31;6.38;;;4.00;;
19778;SDS011;10049;59.306;18.090;2023-09-12T02:07:58;4.07;;;3.67;;
19778;SDS011;10049;59.306;18.090;2023-09-12T02:10:27;6.25;;;3.80;;
19778;SDS011;10049;59.306;18.090;2023-09-12T02:12:54;4.65;;;3.80;;
19778;SDS011;10049;59.306;18.090;2023-09-12T02:15:22;4.53;;;4.03;;
19778;SDS011;10049;59.306;18.090;2023-09-12T02:17:49;4.68;;;3.80;;
19778;SDS011;10049;59.306;18.090;2023-09-12T02:20:20;4.25;;;3.42;;
19778;SDS011;10049;59.306;18.090;2023-09-12T02:22:48;4.40;;;3.92;;
19778;SDS011;10049;59.306;18.090;2023-09-12T02:25:15;4.85;;;3.80;;
19778;SDS011;10049;59.306;18.090;2023-09-12T02:27:43;7.05;;;3.80;;
19778;SDS011;10049;59.306;18.090;2023-09-12T02:30:11;4.35;;;3.90;;
19778;SDS011;10049;59.306;18.090;2023-09-12T02:32:38;6.72;;;4.15;;
19778;SDS011;10049;59.306;18.090;2023-09-12T02:35:08;8.23;;;4.20;;
19778;SDS011;10049;59.306;18.090;2023-09-12T02:37:39;5.22;;;4.10;;
19778;SDS011;10049;59.306;18.090;2023-09-12T02:40:07;5.40;;;4.00;;
19778;SDS011;10049;59.306;18.090;2023-09-12T02:42:37;5.45;;;4.38;;
19778;SDS011;10049;59.306;18.090;2023-09-12T02:45:05;7.18;;;4.28;;
19778;SDS011;10049;59.306;18.090;2023-09-12T02:47:33;6.20;;;4.47;;
19778;SDS011;10049;59.306;18.090;2023-09-12T02:50:01;5.47;;;4.20;;
19778;SDS011;10049;59.306;18.090;2023-09-12T02:52:28;7.15;;;4.05;;
19778;SDS011;10049;59.306;18.090;2023-09-12T02:54:57;7.95;;;4.80;;
19778;SDS011;10049;59.306;18.090;2023-09-12T02:57:25;8.50;;;4.70;;
19778;SDS011;10049;59.306;18.090;2023-09-12T02:59:52;9.18;;;4.65;;
19778;SDS011;10049;59.306;18.090;2023-09-12T03:02:20;6.90;;;4.72;;
19778;SDS011;10049;59.306;18.090;2023-09-12T03:04:47;7.78;;;4.55;;
19778;SDS011;10049;59.306;18.090;2023-09-12T03:07:17;8.60;;;4.57;;
19778;SDS011;10049;59.306;18.090;2023-09-12T03:09:47;5.25;;;4.25;;
19778;SDS011;10049;59.306;18.090;2023-09-12T03:12:17;9.75;;;4.00;;
19778;SDS011;10049;59.306;18.090;2023-09-12T03:14:44;4.57;;;3.90;;
19778;SDS011;10049;59.306;18.090;2023-09-12T03:17:12;7.10;;;4.03;;
19778;SDS011;10049;59.306;18.090;2023-09-12T03:19:40;6.32;;;3.85;;
19778;SDS011;10049;59.306;18.090;2023-09-12T03:22:08;4.47;;;3.85;;
19778;SDS011;10049;59.306;18.090;2023-09-12T03:24:36;4.22;;;3.55;;
19778;SDS011;10049;59.306;18.090;2023-09-12T03:27:06;4.45;;;3.83;;
19778;SDS011;10049;59.306;18.090;2023-09-12T03:29:35;4.68;;;3.92;;
19778;SDS011;10049;59.306;18.090;2023-09-12T03:32:04;4.07;;;3.67;;
19778;SDS011;10049;59.306;18.090;2023-09-12T03:34:31;5.78;;;3.80;;
19778;SDS011;10049;59.306;18.090;2023-09-12T03:36:59;4.53;;;3.58;;
19778;SDS011;10049;59.306;18.090;2023-09-12T03:39:27;6.10;;;3.70;;
19778;SDS011;10049;59.306;18.090;2023-09-12T03:41:55;4.80;;;3.65;;
19778;SDS011;10049;59.306;18.090;2023-09-12T03:44:24;8.40;;;4.00;;
19778;SDS011;10049;59.306;18.090;2023-09-12T03:47:01;4.25;;;3.47;;
19778;SDS011;10049;59.306;18.090;2023-09-12T03:49:28;3.92;;;3.53;;
19778;SDS011;10049;59.306;18.090;2023-09-12T03:51:56;4.93;;;3.90;;
19778;SDS011;10049;59.306;18.090;2023-09-12T03:54:24;4.20;;;3.55;;
19778;SDS011;10049;59.306;18.090;2023-09-12T03:56:51;5.63;;;3.70;;
19778;SDS011;10049;59.306;18.090;2023-09-12T03:59:19;9.10;;;3.80;;
19778;SDS011;10049;59.306;18.090;2023-09-12T04:01:47;4.15;;;3.40;;
19778;SDS011;10049;59.306;18.090;2023-09-12T04:04:16;6.20;;;3.53;;
19778;SDS011;10049;59.306;18.090;2023-09-12T04:06:44;6.80;;;3.60;;
19778;SDS011;10049;59.306;18.090;2023-09-12T04:09:12;3.78;;;3.38;;
19778;SDS011;10049;59.306;18.090;2023-09-12T04:11:39;4.47;;;3.50;;
19778;SDS011;10049;59.306;18.090;2023-09-12T04:14:07;3.90;;;3.33;;
19778;SDS011;10049;59.306;18.090;2023-09-12T04:16:34;4.10;;;3.33;;
19778;SDS011;10049;59.306;18.090;2023-09-12T04:19:02;5.07;;;3.50;;
19778;SDS011;10049;59.306;18.090;2023-09-12T04:21:31;3.63;;;3.00;;
19778;SDS011;10049;59.306;18.090;2023-09-12T04:23:59;6.07;;;3.63;;
19778;SDS011;10049;59.306;18.090;2023-09-12T04:26:27;4.25;;;3.00;;
19778;SDS011;10049;59.306;18.090;2023-09-12T04:28:55;4.05;;;3.28;;
19778;SDS011;10049;59.306;18.090;2023-09-12T04:31:24;4.47;;;3.20;;
19778;SDS011;10049;59.306;18.090;2023-09-12T04:33:52;3.80;;;3.40;;
19778;SDS011;10049;59.306;18.090;2023-09-12T04:36:19;5.38;;;3.83;;
19778;SDS011;10049;59.306;18.090;2023-09-12T04:38:48;4.85;;;3.60;;
19778;SDS011;10049;59.306;18.090;2023-09-12T04:41:16;5.05;;;3.70;;
19778;SDS011;10049;59.306;18.090;2023-09-12T04:43:44;8.15;;;3.67;;
19778;SDS011;10049;59.306;18.090;2023-09-12T04:46:13;5.05;;;4.10;;
19778;SDS011;10049;59.306;18.090;2023-09-12T04:48:40;5.35;;;3.85;;
19778;SDS011;10049;59.306;18.090;2023-09-12T04:51:08;5.80;;;3.88;;
19778;SDS011;10049;59.306;18.090;2023-09-12T04:53:36;4.70;;;3.60;;
19778;SDS011;10049;59.306;18.090;2023-09-12T04:56:06;6.15;;;3.70;;
19778;SDS011;10049;59.306;18.090;2023-09-12T04:58:35;5.22;;;3.85;;
19778;SDS011;10049;59.306;18.090;2023-09-12T05:01:02;4.88;;;3.60;;
19778;SDS011;10049;59.306;18.090;2023-09-12T05:03:30;5.97;;;3.92;;
19778;SDS011;10049;59.306;18.090;2023-09-12T05:06:00;5.20;;;4.03;;
19778;SDS011;10049;59.306;18.090;2023-09-12T05:08:30;6.35;;;4.15;;
19778;SDS011;10049;59.306;18.090;2023-09-12T05:10:58;7.90;;;4.00;;
19778;SDS011;10049;59.306;18.090;2023-09-12T05:13:28;5.18;;;3.95;;
19778;SDS011;10049;59.306;18.090;2023-09-12T05:15:56;4.55;;;3.65;;
19778;SDS011;10049;59.306;18.090;2023-09-12T05:18:23;4.63;;;3.78;;
19778;SDS011;10049;59.306;18.090;2023-09-12T05:21:02;11.30;;;3.78;;
19778;SDS011;10049;59.306;18.090;2023-09-12T05:23:30;5.00;;;4.05;;
19778;SDS011;10049;59.306;18.090;2023-09-12T05:25:58;6.95;;;4.22;;
19778;SDS011;10049;59.306;18.090;2023-09-12T05:28:26;5.13;;;4.00;;
19778;SDS011;10049;59.306;18.090;2023-09-12T05:30:55;6.95;;;4.32;;
19778;SDS011;10049;59.306;18.090;2023-09-12T05:33:23;5.10;;;4.03;;
19778;SDS011;10049;59.306;18.090;2023-09-12T05:35:50;8.52;;;4.07;;
19778;SDS011;10049;59.306;18.090;2023-09-12T05:41:01;6.45;;;3.78;;
19778;SDS011;10049;59.306;18.090;2023-09-12T05:43:32;4.35;;;3.20;;
19778;SDS011;10049;59.306;18.090;2023-09-12T05:46:01;4.65;;;3.90;;
19778;SDS011;10049;59.306;18.090;2023-09-12T05:48:29;8.45;;;3.60;;
19778;SDS011;10049;59.306;18.090;2023-09-12T05:50:57;5.75;;;3.72;;
19778;SDS011;10049;59.306;18.090;2023-09-12T05:53:25;4.47;;;3.75;;
19778;SDS011;10049;59.306;18.090;2023-09-12T05:55:53;5.25;;;3.40;;
19778;SDS011;10049;59.306;18.090;2023-09-12T05:58:21;3.40;;;3.10;;
19778;SDS011;10049;59.306;18.090;2023-09-12T06:00:48;15.00;;;3.15;;
19778;SDS011;10049;59.306;18.090;2023-09-12T06:03:18;3.70;;;2.75;;
19778;SDS011;10049;59.306;18.090;2023-09-12T06:05:46;6.20;;;3.00;;
19778;SDS011;10049;59.306;18.090;2023-09-12T06:08:14;3.95;;;2.80;;
19778;SDS011;10049;59.306;18.090;2023-09-12T06:10:42;2.83;;;2.47;;
19778;SDS011;10049;59.306;18.090;2023-09-12T06:13:10;2.83;;;2.58;;
19778;SDS011;10049;59.306;18.090;2023-09-12T06:15:39;2.72;;;2.42;;
19778;SDS011;10049;59.306;18.090;2023-09-12T06:18:07;2.45;;;2.25;;
19778;SDS011;10049;59.306;18.090;2023-09-12T06:20:37;6.40;;;2.55;;
19778;SDS011;10049;59.306;18.090;2023-09-12T06:23:05;3.53;;;2.70;;
19778;SDS011;10049;59.306;18.090;2023-09-12T06:25:32;3.95;;;2.40;;
19778;SDS011;10049;59.306;18.090;2023-09-12T06:28:01;4.78;;;2.40;;
19778;SDS011;10049;59.306;18.090;2023-09-12T06:30:28;3.28;;;2.60;;
19778;SDS011;10049;59.306;18.090;2023-09-12T06:32:56;2.50;;;2.30;;
19778;SDS011;10049;59.306;18.090;2023-09-12T06:35:23;2.60;;;2.40;;
19778;SDS011;10049;59.306;18.090;2023-09-12T06:37:53;2.47;;;2.28;;
19778;SDS011;10049;59.306;18.090;2023-09-12T06:40:23;2.97;;;2.15;;
19778;SDS011;10049;59.306;18.090;2023-09-12T06:42:51;4.55;;;2.13;;
19778;SDS011;10049;59.306;18.090;2023-09-12T06:45:19;2.10;;;1.90;;
19778;SDS011;10049;59.306;18.090;2023-09-12T06:47:46;2.28;;;2.05;;
19778;SDS011;10049;59.306;18.090;2023-09-12T06:50:15;2.45;;;2.20;;
19778;SDS011;10049;59.306;18.090;2023-09-12T06:52:42;3.05;;;1.88;;
19778;SDS011;10049;59.306;18.090;2023-09-12T06:55:15;2.75;;;1.90;;
19778;SDS011;10049;59.306;18.090;2023-09-12T06:57:43;2.45;;;1.98;;
19778;SDS011;10049;59.306;18.090;2023-09-12T07:00:12;2.60;;;2.08;;
19778;SDS011;10049;59.306;18.090;2023-09-12T07:02:40;2.30;;;2.10;;
19778;SDS011;10049;59.306;18.090;2023-09-12T07:05:08;2.28;;;1.90;;
19778;SDS011;10049;59.306;18.090;2023-09-12T07:07:36;2.22;;;2.03;;
19778;SDS011;10049;59.306;18.090;2023-09-12T07:10:04;2.30;;;2.10;;
19778;SDS011;10049;59.306;18.090;2023-09-12T07:12:34;2.63;;;1.80;;
19778;SDS011;10049;59.306;18.090;2023-09-12T07:15:05;1.95;;;1.85;;
19778;SDS011;10049;59.306;18.090;2023-09-12T07:17:34;2.05;;;1.85;;
19778;SDS011;10049;59.306;18.090;2023-09-12T07:20:02;3.65;;;1.90;;
19778;SDS011;10049;59.306;18.090;2023-09-12T07:22:35;2.00;;;1.90;;
19778;SDS011;10049;59.306;18.090;2023-09-12T07:25:02;8.55;;;2.00;;
19778;SDS011;10049;59.306;18.090;2023-09-12T07:27:30;2.28;;;2.08;;
19778;SDS011;10049;59.306;18.090;2023-09-12T07:30:03;2.22;;;2.00;;
19778;SDS011;10049;59.306;18.090;2023-09-12T07:32:30;10.05;;;2.30;;
19778;SDS011;10049;59.306;18.090;2023-09-12T07:34:59;2.35;;;2.10;;
19778;SDS011;10049;59.306;18.090;2023-09-12T07:37:26;3.13;;;2.25;;
19778;SDS011;10049;59.306;18.090;2023-09-12T07:39:56;2.42;;;2.20;;
19778;SDS011;10049;59.306;18.090;2023-09-12T07:42:24;2.30;;;2.10;;
19778;SDS011;10049;59.306;18.090;2023-09-12T07:44:52;2.65;;;2.00;;
19778;SDS011;10049;59.306;18.090;2023-09-12T07:47:21;2.63;;;2.42;;
19778;SDS011;10049;59.306;18.090;2023-09-12T07:49:52;3.35;;;2.80;;
19778;SDS011;10049;59.306;18.090;2023-09-12T07:52:22;3.33;;;2.40;;
19778;SDS011;10049;59.306;18.090;2023-09-12T07:54:50;2.45;;;2.00;;
19778;SDS011;10049;59.306;18.090;2023-09-12T07:57:22;2.50;;;2.30;;
19778;SDS011;10049;59.306;18.090;2023-09-12T07:59:50;6.45;;;2.75;;
19778;SDS011;10049;59.306;18.090;2023-09-12T08:02:18;3.67;;;2.55;;
19778;SDS011;10049;59.306;18.090;2023-09-12T08:04:50;3.55;;;2.20;;
19778;SDS011;10049;59.306;18.090;2023-09-12T08:07:18;2.45;;;2.13;;
19778;SDS011;10049;59.306;18.090;2023-09-12T08:09:50;2.58;;;2.08;;
19778;SDS011;10049;59.306;18.090;2023-09-12T08:12:19;2.30;;;2.10;;
19778;SDS011;10049;59.306;18.090;2023-09-12T08:14:47;2.45;;;2.08;;
19778;SDS011;10049;59.306;18.090;2023-09-12T08:17:16;2.42;;;2.10;;
19778;SDS011;10049;59.306;18.090;2023-09-12T08:19:44;6.25;;;2.40;;
19778;SDS011;10049;59.306;18.090;2023-09-12T08:22:13;7.25;;;2.85;;
19778;SDS011;10049;59.306;18.090;2023-09-12T08:24:41;6.10;;;2.53;;
19778;SDS011;10049;59.306;18.090;2023-09-12T08:27:09;5.43;;;2.50;;
19778;SDS011;10049;59.306;18.090;2023-09-12T08:29:37;3.88;;;2.47;;
19778;SDS011;10049;59.306;18.090;2023-09-12T08:32:06;2.83;;;2.60;;
19778;SDS011;10049;59.306;18.090;2023-09-12T08:34:37;5.75;;;2.90;;
19778;SDS011;10049;59.306;18.090;2023-09-12T08:37:05;3.25;;;2.95;;
19778;SDS011;10049;59.306;18.090;2023-09-12T08:39:42;5.28;;;3.20;;
19778;SDS011;10049;59.306;18.090;2023-09-12T08:42:11;3.88;;;3.13;;
19778;SDS011;10049;59.306;18.090;2023-09-12T08:44:39;8.60;;;3.00;;
19778;SDS011;10049;59.306;18.090;2023-09-12T08:47:07;3.83;;;3.03;;
19778;SDS011;10049;59.306;18.090;2023-09-12T08:49:36;4.60;;;3.60;;
19778;SDS011;10049;59.306;18.090;2023-09-12T08:52:04;3.65;;;3.35;;
19778;SDS011;10049;59.306;18.090;2023-09-12T08:54:32;3.90;;;3.45;;
19778;SDS011;10049;59.306;18.090;2023-09-12T08:57:01;7.03;;;3.20;;
19778;SDS011;10049;59.306;18.090;2023-09-12T08:59:31;5.07;;;3.03;;
19778;SDS011;10049;59.306;18.090;2023-09-12T09:01:59;3.80;;;3.10;;
19778;SDS011;10049;59.306;18.090;2023-09-12T09:04:28;6.53;;;3.40;;
19778;SDS011;10049;59.306;18.090;2023-09-12T09:06:56;5.80;;;3.20;;
19778;SDS011;10049;59.306;18.090;2023-09-12T09:09:25;5.18;;;3.20;;
19778;SDS011;10049;59.306;18.090;2023-09-12T09:11:53;4.25;;;2.88;;
19778;SDS011;10049;59.306;18.090;2023-09-12T09:14:22;5.20;;;3.20;;
19778;SDS011;10049;59.306;18.090;2023-09-12T09:16:51;11.43;;;3.20;;
19778;SDS011;10049;59.306;18.090;2023-09-12T09:19:22;4.60;;;3.10;;
19778;SDS011;10049;59.306;18.090;2023-09-12T09:22:07;3.20;;;2.90;;
19778;SDS011;10049;59.306;18.090;2023-09-12T09:24:36;4.00;;;2.88;;
19778;SDS011;10049;59.306;18.090;2023-09-12T09:27:04;3.83;;;2.83;;
19778;SDS011;10049;59.306;18.090;2023-09-12T09:29:43;5.18;;;3.00;;
19778;SDS011;10049;59.306;18.090;2023-09-12T09:32:16;3.75;;;2.95;;
19778;SDS011;10049;59.306;18.090;2023-09-12T09:34:46;4.65;;;3.20;;
19778;SDS011;10049;59.306;18.090;2023-09-12T09:37:14;3.55;;;3.08;;
19778;SDS011;10049;59.306;18.090;2023-09-12T09:39:44;6.55;;;2.97;;
19778;SDS011;10049;59.306;18.090;2023-09-12T09:42:13;2.90;;;2.60;;
19778;SDS011;10049;59.306;18.090;2023-09-12T09:44:43;6.03;;;2.72;;
19778;SDS011;10049;59.306;18.090;2023-09-12T09:47:10;8.23;;;2.55;;
19778;SDS011;10049;59.306;18.090;2023-09-12T09:49:38;3.22;;;2.22;;
19778;SDS011;10049;59.306;18.090;2023-09-12T09:52:07;4.07;;;2.75;;
19778;SDS011;10049;59.306;18.090;2023-09-12T09:54:35;4.18;;;2.80;;
19778;SDS011;10049;59.306;18.090;2023-09-12T09:57:02;4.22;;;2.58;;
19778;SDS011;10049;59.306;18.090;2023-09-12T09:59:31;3.40;;;2.42;;
19778;SDS011;10049;59.306;18.090;2023-09-12T10:02:01;3.25;;;2.55;;
19778;SDS011;10049;59.306;18.090;2023-09-12T10:04:30;2.60;;;2.40;;
19778;SDS011;10049;59.306;18.090;2023-09-12T10:07:00;3.42;;;2.47;;
19778;SDS011;10049;59.306;18.090;2023-09-12T10:09:28;3.85;;;2.55;;
19778;SDS011;10049;59.306;18.090;2023-09-12T10:11:57;4.97;;;2.40;;
19778;SDS011;10049;59.306;18.090;2023-09-12T10:14:26;3.08;;;2.83;;
19778;SDS011;10049;59.306;18.090;2023-09-12T10:16:57;3.30;;;2.88;;
19778;SDS011;10049;59.306;18.090;2023-09-12T10:19:32;6.32;;;2.85;;
19778;SDS011;10049;59.306;18.090;2023-09-12T10:22:04;3.20;;;2.60;;
19778;SDS011;10049;59.306;18.090;2023-09-12T10:24:34;4.53;;;2.95;;
19778;SDS011;10049;59.306;18.090;2023-09-12T10:27:02;4.10;;;2.70;;
19778;SDS011;10049;59.306;18.090;2023-09-12T10:29:33;3.42;;;2.75;;
19778;SDS011;10049;59.306;18.090;2023-09-12T10:32:01;4.18;;;3.10;;
19778;SDS011;10049;59.306;18.090;2023-09-12T10:34:31;6.47;;;3.22;;
19778;SDS011;10049;59.306;18.090;2023-09-12T10:37:02;5.50;;;3.60;;
19778;SDS011;10049;59.306;18.090;2023-09-12T10:39:31;3.67;;;3.22;;
19778;SDS011;10049;59.306;18.090;2023-09-12T10:41:59;3.42;;;3.13;;
19778;SDS011;10049;59.306;18.090;2023-09-12T10:44:31;7.03;;;3.33;;
19778;SDS011;10049;59.306;18.090;2023-09-12T10:46:59;4.75;;;3.60;;
19778;SDS011;10049;59.306;18.090;2023-09-12T10:49:29;4.78;;;3.55;;
19778;SDS011;10049;59.306;18.090;2023-09-12T10:52:00;7.10;;;4.18;;
19778;SDS011;10049;59.306;18.090;2023-09-12T10:54:35;9.07;;;3.63;;
19778;SDS011;10049;59.306;18.090;2023-09-12T10:57:03;7.28;;;4.20;;
19778;SDS011;10049;59.306;18.090;2023-09-12T10:59:31;5.82;;;4.00;;
19778;SDS011;10049;59.306;18.090;2023-09-12T11:04:43;5.05;;;4.00;;
19778;SDS011;10049;59.306;18.090;2023-09-12T11:12:39;3.92;;;3.63;;
19778;SDS011;10049;59.306;18.090;2023-09-12T11:15:07;5.63;;;3.85;;
19778;SDS011;10049;59.306;18.090;2023-09-12T11:17:37;6.30;;;3.80;;
19778;SDS011;10049;59.306;18.090;2023-09-12T11:20:05;5.40;;;3.53;;
19778;SDS011;10049;59.306;18.090;2023-09-12T11:22:36;4.60;;;3.67;;
19778;SDS011;10049;59.306;18.090;2023-09-12T11:25:05;5.47;;;3.42;;
19778;SDS011;10049;59.306;18.090;2023-09-12T11:27:33;3.92;;;3.53;;
19778;SDS011;10049;59.306;18.090;2023-09-12T11:30:14;7.00;;;3.20;;
19778;SDS011;10049;59.306;18.090;2023-09-12T11:32:42;4.95;;;3.70;;
19778;SDS011;10049;59.306;18.090;2023-09-12T11:35:11;5.38;;;2.80;;
19778;SDS011;10049;59.306;18.090;2023-09-12T11:37:38;3.83;;;2.80;;
19778;SDS011;10049;59.306;18.090;2023-09-12T11:40:16;3.92;;;3.10;;
19778;SDS011;10049;59.306;18.090;2023-09-12T11:42:46;3.38;;;2.85;;
19778;SDS011;10049;59.306;18.090;2023-09-12T11:45:16;5.45;;;3.20;;
19778;SDS011;10049;59.306;18.090;2023-09-12T11:47:45;4.55;;;3.10;;
19778;SDS011;10049;59.306;18.090;2023-09-12T11:50:25;3.67;;;3.00;;
19778;SDS011;10049;59.306;18.090;2023-09-12T11:52:58;4.15;;;3.00;;
19778;SDS011;10049;59.306;18.090;2023-09-12T11:55:26;3.67;;;2.85;;
19778;SDS011;10049;59.306;18.090;2023-09-12T11:57:55;4.03;;;2.88;;
19778;SDS011;10049;59.306;18.090;2023-09-12T12:00:24;3.85;;;2.80;;
19778;SDS011;10049;59.306;18.090;2023-09-12T12:02:53;4.90;;;2.80;;
19778;SDS011;10049;59.306;18.090;2023-09-12T12:05:20;4.35;;;2.95;;
19778;SDS011;10049;59.306;18.090;2023-09-12T12:07:49;4.13;;;3.00;;
19778;SDS011;10049;59.306;18.090;2023-09-12T12:10:17;3.80;;;3.22;;
19778;SDS011;10049;59.306;18.090;2023-09-12T12:12:45;3.53;;;3.20;;
19778;SDS011;10049;59.306;18.090;2023-09-12T12:15:13;3.45;;;3.15;;
19778;SDS011;10049;59.306;18.090;2023-09-12T12:17:42;3.83;;;3.15;;
19778;SDS011;10049;59.306;18.090;2023-09-12T12:20:10;7.05;;;3.13;;
19778;SDS011;10049;59.306;18.090;2023-09-12T12:22:39;5.50;;;3.22;;
19778;SDS011;10049;59.306;18.090;2023-09-12T12:25:09;5.95;;;3.22;;
19778;SDS011;10049;59.306;18.090;2023-09-12T12:27:37;4.97;;;3.20;;
19778;SDS011;10049;59.306;18.090;2023-09-12T12:30:06;8.02;;;3.30;;
19778;SDS011;10049;59.306;18.090;2023-09-12T12:32:35;5.63;;;3.40;;
19778;SDS011;10049;59.306;18.090;2023-09-12T12:35:06;5.13;;;3.55;;
19778;SDS011;10049;59.306;18.090;2023-09-12T12:37:33;4.55;;;3.33;;
19778;SDS011;10049;59.306;18.090;2023-09-12T12:40:02;4.97;;;3.35;;
19778;SDS011;10049;59.306;18.090;2023-09-12T12:42:32;5.85;;;3.20;;
19778;SDS011;10049;59.306;18.090;2023-09-12T12:45:00;4.90;;;3.40;;
19778;SDS011;10049;59.306;18.090;2023-09-12T12:47:32;11.88;;;3.50;;
19778;SDS011;10049;59.306;18.090;2023-09-12T12:50:00;7.85;;;3.22;;
19778;SDS011;10049;59.306;18.090;2023-09-12T12:52:31;3.95;;;3.55;;
19778;SDS011;10049;59.306;18.090;2023-09-12T12:55:05;5.07;;;3.50;;
19778;SDS011;10049;59.306;18.090;2023-09-12T12:57:35;4.35;;;3.63;;
19778;SDS011;10049;59.306;18.090;2023-09-12T13:00:05;4.78;;;3.55;;
19778;SDS011;10049;59.306;18.090;2023-09-12T13:02:33;3.83;;;3.53;;
19778;SDS011;10049;59.306;18.090;2023-09-12T13:05:03;9.05;;;3.30;;
19778;SDS011;10049;59.306;18.090;2023-09-12T13:07:35;4.15;;;3.60;;
19778;SDS011;10049;59.306;18.090;2023-09-12T13:10:03;4.68;;;3.53;;
19778;SDS011;10049;59.306;18.090;2023-09-12T13:12:31;4.43;;;3.53;;
19778;SDS011;10049;59.306;18.090;2023-09-12T13:14:58;5.03;;;3.60;;
19778;SDS011;10049;59.306;18.090;2023-09-12T13:17:26;8.13;;;3.53;;
19778;SDS011;10049;59.306;18.090;2023-09-12T13:19:54;5.68;;;3.80;;
19778;SDS011;10049;59.306;18.090;2023-09-12T13:22:23;6.10;;;3.58;;
19778;SDS011;10049;59.306;18.090;2023-09-12T13:24:52;5.38;;;3.60;;
19778;SDS011;10049;59.306;18.090;2023-09-12T13:27:21;5.70;;;3.40;;
19778;SDS011;10049;59.306;18.090;2023-09-12T13:29:49;8.25;;;3.58;;
19778;SDS011;10049;59.306;18.090;2023-09-12T13:32:17;6.95;;;3.65;;
19778;SDS011;10049;59.306;18.090;2023-09-12T13:34:44;4.28;;;3.80;;
19778;SDS011;10049;59.306;18.090;2023-09-12T13:37:12;9.85;;;3.65;;
19778;SDS011;10049;59.306;18.090;2023-09-12T13:39:42;4.25;;;3.78;;
19778;SDS011;10049;59.306;18.090;2023-09-12T13:42:16;5.45;;;4.00;;
19778;SDS011;10049;59.306;18.090;2023-09-12T13:44:46;4.82;;;3.60;;
19778;SDS011;10049;59.306;18.090;2023-09-12T13:47:16;7.38;;;3.75;;
19778;SDS011;10049;59.306;18.090;2023-09-12T13:49:47;4.40;;;3.90;;
19778;SDS011;10049;59.306;18.090;2023-09-12T13:52:17;4.30;;;3.90;;
19778;SDS011;10049;59.306;18.090;2023-09-12T13:54:45;4.25;;;3.85;;
19778;SDS011;10049;59.306;18.090;2023-09-12T13:57:18;8.00;;;3.88;;
19778;SDS011;10049;59.306;18.090;2023-09-12T13:59:46;4.28;;;3.47;;
19778;SDS011;10049;59.306;18.090;2023-09-12T14:02:13;4.35;;;3.47;;
19778;SDS011;10049;59.306;18.090;2023-09-12T14:04:43;5.50;;;3.60;;
19778;SDS011;10049;59.306;18.090;2023-09-12T14:07:11;5.30;;;3.90;;
19778;SDS011;10049;59.306;18.090;2023-09-12T14:09:38;4.78;;;3.58;;
19778;SDS011;10049;59.306;18.090;2023-09-12T14:12:06;5.38;;;3.40;;
19778;SDS011;10049;59.306;18.090;2023-09-12T14:14:37;5.07;;;3.38;;
19778;SDS011;10049;59.306;18.090;2023-09-12T14:17:04;4.75;;;3.70;;
19778;SDS011;10049;59.306;18.090;2023-09-12T14:19:37;5.18;;;3.50;;
19778;SDS011;10049;59.306;18.090;2023-09-12T14:22:18;3.70;;;3.40;;
19778;SDS011;10049;59.306;18.090;2023-09-12T14:24:49;3.67;;;3.33;;
19778;SDS011;10049;59.306;18.090;2023-09-12T14:27:22;4.63;;;3.40;;
19778;SDS011;10049;59.306;18.090;2023-09-12T14:29:54;4.38;;;3.50;;
19778;SDS011;10049;59.306;18.090;2023-09-12T14:32:24;5.05;;;3.28;;
19778;SDS011;10049;59.306;18.090;2023-09-12T14:35:06;10.32;;;3.50;;
19778;SDS011;10049;59.306;18.090;2023-09-12T14:37:36;4.80;;;3.42;;
19778;SDS011;10049;59.306;18.090;2023-09-12T14:40:19;5.45;;;3.85;;
19778;SDS011;10049;59.306;18.090;2023-09-12T14:42:54;4.47;;;3.25;;
19778;SDS011;10049;59.306;18.090;2023-09-12T14:45:24;4.25;;;3.30;;
19778;SDS011;10049;59.306;18.090;2023-09-12T14:50:34;4.05;;;3.40;;
19778;SDS011;10049;59.306;18.090;2023-09-12T14:53:06;5.05;;;3.10;;
19778;SDS011;10049;59.306;18.090;2023-09-12T14:55:34;3.85;;;3.10;;
19778;SDS011;10049;59.306;18.090;2023-09-12T14:58:09;3.97;;;2.90;;
19778;SDS011;10049;59.306;18.090;2023-09-12T15:00:40;4.05;;;3.22;;